Alamogordo-White Sands Regional Airport

Airport
ICAO code: 
KALM
Summary
ICAO Region: 
NAM
Territory: 
Location: 
Alamogordo, New Mexico,
Coordinates: 
Aerial View: 
32° 50' 23.744" N, 105° 59' 26.099" W
Airport RE: 
Hot and High Operations
Metar
Observation
KALM 271035Z AUTO 16006KT 10SM OVC049 06/M00 A3010 RMK AO2
Station
Alamogordo-White
Date/Time
2021-11-27 10:35:00
Wind direction
160°
Wind speed
06 kts
Lowest cloud amount
overcast
Temperature
6°C
Dew point
-0°C
Humidity
65%
Weather condition
n/a

Description

Alamogordo–White Sands Regional Airport is a public use airport located 7 km southwest of the central business district of Alamogordo, a city in Otero County, New Mexico.

Climatology

A semi-arid steppe climate (Köppen climate classification BSk), with generally cold, dry winters and hot summers. Late spring and early summer is on average the wettest period of the year.

Runways

Designator Length Width Surface Rops
16/34 1070 61 GRE No/No
3/21 2135 46 ASP No/No
Airport map: 
Aerial View: 

SKYbrary Partners:

Safety knowledge contributed by: